»·PEaware :: ACA554 CYHZ-KORD

ACA554 :: CYHZ-KORD

FLIGHT INFORMATION

Flight Status: Arrived
Operator:
Air Canada
More flights by this operator :: More flights under this callsign
Pilot: Shawn G. (7208)
Aircraft: AIRBUS A320
(A320)
More flights by this aircraft type
Origin: CYHZ Halifax Intl
Canada
Destination: KORD Chicago-O'Hare Intl
United States
More flights between these airports :: More routes between these airports
Route: ALLEX GONZZ Q822 FNT WYNDE1
File this flight plan on PilotEdge
Remarks:
Altitude:
(Current/Filed)
36,000ft
Speed:
(Current/Filed)
444kts
Departed: 08-Nov-19 08:59 AM
Arrived: 08-Nov-19 11:53 AM
Distance/Time
Traveled:
1073nm/2:54
Distance/Time
To Go:
Arrived

Flight Plot

Page will automatically refresh every two minutes.

Flight plan parsing failed; only flown route is shown


Map Options




Map Legend


Flown Route
Filed Route
Departure Airport
Arrival Airport
Navaid (VOR, NDB)
Fix

Horizontal Profiles

Position Reports

Time Latitude Longitude Heading Altitude Ground
Speed
08-Nov-19 08:57 44.774818 -64.761971 249 25563ft 341kts
08-Nov-19 08:58 44.754443 -64.897956 249 26849ft 346kts
08-Nov-19 08:59 44.734045 -65.032962 249 27973ft 349kts
08-Nov-19 09:00 44.713646 -65.166897 249 29004ft 350kts
08-Nov-19 09:01 44.693268 -65.299720 249 30212ft 345kts
08-Nov-19 09:02 44.672873 -65.431332 249 31219ft 344kts
08-Nov-19 09:03 44.652471 -65.561974 249 32125ft 343kts
08-Nov-19 09:04 44.631880 -65.692825 248 33021ft 341kts
08-Nov-19 09:05 44.611252 -65.822853 248 33894ft 340kts
08-Nov-19 09:06 44.590573 -65.952170 248 34620ft 341kts
08-Nov-19 09:07 44.569588 -66.082022 249 35258ft 343kts
08-Nov-19 09:08 44.548394 -66.212354 249 35829ft 344kts
08-Nov-19 09:09 44.527094 -66.343406 250 35871ft 344kts
08-Nov-19 09:10 44.505686 -66.473925 250 35873ft 346kts
08-Nov-19 09:11 44.484220 -66.605300 250 35872ft 347kts
08-Nov-19 09:12 44.461228 -66.736823 249 35879ft 348kts
08-Nov-19 09:13 44.438790 -66.868745 249 35885ft 349kts
08-Nov-19 09:14 44.417078 -67.001240 252 35876ft 352kts
08-Nov-19 09:15 44.403844 -67.137449 254 35868ft 355kts
08-Nov-19 09:16 44.391011 -67.274170 254 35862ft 355kts
08-Nov-19 09:17 44.377942 -67.411256 254 35832ft 356kts
08-Nov-19 09:18 44.364706 -67.548250 255 35921ft 357kts
08-Nov-19 09:19 44.351235 -67.685918 254 35926ft 358kts
08-Nov-19 09:20 44.337560 -67.823880 254 35938ft 359kts
08-Nov-19 09:21 44.323742 -67.961586 254 35934ft 360kts
08-Nov-19 09:22 44.309669 -68.100093 255 35926ft 360kts
08-Nov-19 09:23 44.295413 -68.238688 255 35922ft 361kts
08-Nov-19 09:24 44.280975 -68.377351 255 35921ft 362kts
08-Nov-19 09:25 44.266369 -68.515946 255 35921ft 362kts
08-Nov-19 09:26 44.251665 -68.653820 254 35922ft 363kts
08-Nov-19 09:27 44.236625 -68.793174 254 35936ft 365kts
08-Nov-19 09:28 44.221309 -68.933466 255 35963ft 366kts
08-Nov-19 09:29 44.205880 -69.073168 255 35954ft 366kts
08-Nov-19 09:30 44.190239 -69.213144 255 35947ft 366kts
08-Nov-19 09:31 44.174388 -69.353390 255 35944ft 367kts
08-Nov-19 09:32 44.158374 -69.493484 255 35944ft 367kts
08-Nov-19 09:33 44.142149 -69.633858 255 35996ft 367kts
08-Nov-19 09:34 44.125657 -69.774910 255 36018ft 370kts
08-Nov-19 09:35 44.108936 -69.916418 255 35992ft 371kts
08-Nov-19 09:36 44.092049 -70.057763 255 35984ft 371kts
08-Nov-19 09:37 44.074996 -70.198963 255 35978ft 371kts
08-Nov-19 09:38 44.057674 -70.340846 255 36003ft 371kts
08-Nov-19 09:39 44.040292 -70.481754 255 35999ft 371kts
08-Nov-19 09:40 44.022648 -70.623257 255 35999ft 372kts
08-Nov-19 09:41 44.004798 -70.764895 255 36012ft 373kts
08-Nov-19 09:42 43.986699 -70.907047 255 36046ft 374kts
08-Nov-19 09:43 43.968410 -71.049232 255 36037ft 374kts
08-Nov-19 09:44 43.950038 -71.190603 255 36028ft 374kts
08-Nov-19 09:45 43.931458 -71.332675 256 36027ft 374kts
08-Nov-19 09:46 43.912729 -71.474359 256 35997ft 374kts
08-Nov-19 09:47 43.893839 -71.615704 256 36012ft 375kts
08-Nov-19 09:48 43.874599 -71.758187 255 36106ft 377kts
08-Nov-19 09:49 43.854956 -71.900997 256 36106ft 377kts
08-Nov-19 09:50 43.835251 -72.043574 256 36091ft 377kts
08-Nov-19 09:51 43.815437 -72.185830 256 36080ft 377kts
08-Nov-19 09:52 43.795395 -72.328371 256 36092ft 378kts
08-Nov-19 09:53 43.775121 -72.471232 257 36108ft 379kts
08-Nov-19 09:54 43.754675 -72.613973 257 36116ft 380kts
08-Nov-19 09:55 43.733923 -72.757478 256 36122ft 381kts
08-Nov-19 09:56 43.712957 -72.901131 257 36183ft 382kts
08-Nov-19 09:57 43.691808 -73.044713 257 36175ft 381kts
08-Nov-19 09:58 43.670526 -73.187876 257 36166ft 381kts
08-Nov-19 09:59 43.649056 -73.330999 257 36160ft 381kts
08-Nov-19 10:00 43.627402 -73.474059 257 36159ft 381kts
08-Nov-19 10:01 43.605532 -73.617235 257 36160ft 381kts
08-Nov-19 10:02 43.583471 -73.760358 257 36199ft 383kts
08-Nov-19 10:03 43.561153 -73.903930 257 36208ft 383kts
08-Nov-19 10:04 43.538706 -74.047078 257 36201ft 383kts
08-Nov-19 10:05 43.516014 -74.190529 257 36196ft 383kts
08-Nov-19 10:06 43.493172 -74.333685 258 36193ft 383kts
08-Nov-19 10:07 43.470102 -74.477043 258 36192ft 383kts
08-Nov-19 10:08 43.446926 -74.619864 258 36204ft 383kts
08-Nov-19 10:09 43.423458 -74.763239 258 36280ft 385kts
08-Nov-19 10:10 43.399694 -74.907224 258 36289ft 386kts
08-Nov-19 10:11 43.375809 -75.050746 258 36284ft 385kts
08-Nov-19 10:12 43.351707 -75.194375 258 36277ft 385kts
08-Nov-19 10:13 43.327586 -75.336940 258 36271ft 385kts
08-Nov-19 10:14 43.303176 -75.480044 259 36270ft 384kts
08-Nov-19 10:15 43.278673 -75.622542 259 36269ft 384kts
08-Nov-19 10:17 43.253909 -75.765395 258 36279ft 385kts
08-Nov-19 10:18 43.229034 -75.907760 258 36289ft 385kts
08-Nov-19 10:19 43.203841 -76.050817 258 36318ft 385kts
08-Nov-19 10:20 43.178625 -76.192884 258 36304ft 384kts
08-Nov-19 10:21 43.153166 -76.335204 259 36297ft 384kts
08-Nov-19 10:22 43.127675 -76.476608 259 36295ft 383kts
08-Nov-19 10:23 43.101935 -76.618307 259 36296ft 383kts
08-Nov-19 10:24 43.090535 -76.762050 271 36309ft 382kts
08-Nov-19 10:25 43.092570 -76.907054 271 36317ft 381kts
08-Nov-19 10:26 43.094399 -77.052090 271 36308ft 381kts
08-Nov-19 10:27 43.096039 -77.196795 271 36302ft 381kts
08-Nov-19 10:28 43.097494 -77.341402 271 36327ft 380kts
08-Nov-19 10:29 43.098769 -77.485897 272 36325ft 380kts
08-Nov-19 10:30 43.099864 -77.630710 272 36325ft 380kts
08-Nov-19 10:31 43.100774 -77.775514 271 36335ft 381kts
08-Nov-19 10:32 43.101504 -77.920562 271 36342ft 381kts
08-Nov-19 10:33 43.102051 -78.065432 271 36336ft 380kts
08-Nov-19 10:34 43.102415 -78.209895 272 36328ft 380kts
08-Nov-19 10:35 43.102593 -78.354648 272 36325ft 379kts
08-Nov-19 10:35 43.102599 -78.475054 272 36326ft 379kts
08-Nov-19 10:37 43.102418 -78.643218 272 36360ft 379kts
08-Nov-19 10:38 43.102052 -78.785815 271 36365ft 380kts
08-Nov-19 10:38 43.101611 -78.906275 272 36369ft 380kts
08-Nov-19 10:40 43.100704 -79.075126 271 36363ft 380kts
08-Nov-19 10:41 43.099414 -79.219380 272 36338ft 380kts
08-Nov-19 10:41 43.098214 -79.339577 272 35962ft 377kts
08-Nov-19 10:42 43.096623 -79.483061 272 35989ft 378kts
08-Nov-19 10:43 43.094843 -79.627080 272 36006ft 379kts
08-Nov-19 10:44 43.092875 -79.771626 272 36017ft 380kts
08-Nov-19 10:45 43.090730 -79.915913 272 36024ft 380kts
08-Nov-19 10:46 43.088400 -80.060389 272 36177ft 379kts
08-Nov-19 10:47 43.085888 -80.204848 272 36342ft 380kts
08-Nov-19 10:48 43.083209 -80.348699 272 36325ft 379kts
08-Nov-19 10:49 43.080346 -80.492612 272 36317ft 379kts
08-Nov-19 10:50 43.077300 -80.636597 272 36318ft 379kts
08-Nov-19 10:51 43.074068 -80.780780 271 36331ft 380kts
08-Nov-19 10:52 43.070639 -80.925647 271 36369ft 381kts
08-Nov-19 10:53 43.067027 -81.070545 271 36364ft 381kts
08-Nov-19 10:54 43.063227 -81.214887 271 36356ft 381kts
08-Nov-19 10:55 43.059227 -81.359710 271 36352ft 381kts
08-Nov-19 10:56 43.055055 -81.504163 271 36353ft 381kts
08-Nov-19 10:57 43.050692 -81.648899 271 36353ft 381kts
08-Nov-19 10:58 43.046158 -81.793209 271 36362ft 382kts
08-Nov-19 10:59 43.041416 -81.938350 271 36394ft 383kts
08-Nov-19 11:00 43.036472 -82.083880 271 36387ft 383kts
08-Nov-19 11:01 43.031358 -82.229015 271 36380ft 382kts
08-Nov-19 11:02 43.026066 -82.373978 271 36378ft 382kts
08-Nov-19 11:03 43.020580 -82.519178 271 36373ft 383kts
08-Nov-19 11:04 43.014897 -82.664600 270 36379ft 383kts
08-Nov-19 11:05 43.009024 -82.810153 270 36393ft 385kts
08-Nov-19 11:06 43.002938 -82.956349 270 36399ft 385kts
08-Nov-19 11:07 42.996677 -83.102266 270 36391ft 385kts
08-Nov-19 11:08 42.990215 -83.248490 271 36382ft 385kts
08-Nov-19 11:09 42.983601 -83.393955 271 36379ft 385kts
08-Nov-19 11:10 42.976759 -83.540311 271 36379ft 385kts
08-Nov-19 11:11 42.969741 -83.686447 270 36382ft 386kts
08-Nov-19 11:12 42.962977 -83.833104 271 36391ft 387kts
08-Nov-19 11:13 42.956183 -83.980190 266 36395ft 390kts
08-Nov-19 11:14 42.939073 -84.126111 266 36388ft 390kts
08-Nov-19 11:15 42.921756 -84.272115 266 36380ft 390kts
08-Nov-19 11:16 42.904316 -84.417648 266 36384ft 389kts
08-Nov-19 11:17 42.886621 -84.563698 266 36401ft 389kts
08-Nov-19 11:18 42.871159 -84.709854 267 36401ft 389kts
08-Nov-19 11:19 42.855758 -84.857628 267 36417ft 390kts
08-Nov-19 11:20 42.840169 -85.005190 267 36421ft 391kts
08-Nov-19 11:21 42.824492 -85.151616 267 36386ft 390kts
08-Nov-19 11:22 42.808436 -85.299715 267 36381ft 391kts
08-Nov-19 11:23 42.792333 -85.446440 267 36412ft 391kts
08-Nov-19 11:24 42.769735 -85.592194 262 36410ft 396kts
08-Nov-19 11:25 42.743592 -85.737478 262 34990ft 399kts
08-Nov-19 11:26 42.716687 -85.885781 262 31753ft 408kts
08-Nov-19 11:27 42.688983 -86.037435 262 28420ft 413kts
08-Nov-19 11:28 42.661336 -86.187582 261 25313ft 411kts
08-Nov-19 11:29 42.634082 -86.334334 261 22953ft 389kts
08-Nov-19 11:30 42.607945 -86.474183 261 20745ft 376kts
08-Nov-19 11:31 42.582510 -86.609245 261 18479ft 365kts
08-Nov-19 11:32 42.556168 -86.740674 256 16252ft 360kts
08-Nov-19 11:33 42.522208 -86.866324 254 13953ft 352kts
08-Nov-19 11:34 42.488552 -86.990158 254 11649ft 343kts
08-Nov-19 11:35 42.457385 -87.104145 254 10731ft 298kts
08-Nov-19 11:36 42.430782 -87.201131 254 10212ft 253kts
08-Nov-19 11:37 42.407234 -87.286822 254 9457ft 239kts
08-Nov-19 11:38 42.384068 -87.370784 252 8257ft 236kts
08-Nov-19 11:39 42.361036 -87.453950 252 7096ft 235kts
08-Nov-19 11:40 42.336305 -87.535389 231 6020ft 244kts
08-Nov-19 11:41 42.282026 -87.598090 220 5993ft 259kts
08-Nov-19 11:42 42.216102 -87.626142 176 5360ft 263kts
08-Nov-19 11:43 42.144703 -87.616071 176 4326ft 247kts
08-Nov-19 11:44 42.081103 -87.607590 176 4023ft 209kts
08-Nov-19 11:45 42.024390 -87.599867 176 4023ft 203kts
08-Nov-19 11:46 41.977674 -87.623516 241 3994ft 196kts
08-Nov-19 11:47 41.966445 -87.689612 267 3621ft 178kts
08-Nov-19 11:48 41.966173 -87.750618 267 2712ft 147kts
08-Nov-19 11:49 41.966003 -87.800935 266 2011ft 131kts
08-Nov-19 11:50 41.965876 -87.850463 266 1309ft 132kts
08-Nov-19 11:51 41.965780 -87.899419 267 676ft 120kts
08-Nov-19 11:52 41.966785 -87.915019 303 675ft 0kts
08-Nov-19 11:53 41.966882 -87.915216 303 675ft 7kts
08-Nov-19 11:54 41.968254 -87.920822 4 675ft 20kts
08-Nov-19 11:55 41.970341 -87.913881 88 675ft 27kts
08-Nov-19 11:56 41.970355 -87.906853 90 675ft 12kts
08-Nov-19 11:57 41.971440 -87.905513 284 675ft 12kts
08-Nov-19 11:58 41.973870 -87.908313 355 675ft 8kts
08-Nov-19 11:59 41.974334 -87.908434 346 675ft 0kts
08-Nov-19 12:00 41.974334 -87.908434 346 675ft 0kts
08-Nov-19 12:01 41.974334 -87.908434 346 675ft 0kts
08-Nov-19 12:02 41.974334 -87.908434 346 675ft 0kts

Navigation Log

Ident Type
Flight plan parsing failed, navigation log unavailable